Time;durP1;ratioP1;P1;durP2;ratioP2;P2;SDS_P1;SDS_P2;PMS_P1;PMS_P2;Temp;Humidity;BMP_temperature;BMP_pressure;BME280_temperature;BME280_humidity;BME280_pressure;Samples;Min_cycle;Max_cycle;Signal;HPM_P1;HPM_P2
2024/01/21 00:04:41;;;;;;;16.77;7.90;;;1.20;1.00;;;;;;20576001;28;20395;-38
2024/01/21 00:14:42;;;;;;;14.45;6.88;;;1.20;1.00;;;;;;20570368;28;20446;-39
2024/01/21 00:24:43;;;;;;;12.48;5.68;;;1.30;1.00;;;;;;20583363;28;20053;-38
2024/01/21 00:34:44;;;;;;;9.68;4.93;;;1.30;1.00;;;;;;20588737;28;20042;-38
2024/01/21 00:44:45;;;;;;;10.18;5.30;;;1.40;1.00;;;;;;20584622;28;20038;-39
2024/01/21 00:54:45;;;;;;;7.27;4.10;;;1.50;1.00;;;;;;20589145;28;20050;-38
2024/01/21 01:04:46;;;;;;;7.97;4.53;;;1.70;1.00;;;;;;20586760;28;20992;-38
2024/01/21 01:14:46;;;;;;;9.30;3.80;;;1.70;1.00;;;;;;20585280;28;20070;-38
2024/01/21 01:24:47;;;;;;;9.15;3.95;;;1.80;1.00;;;;;;20588311;28;20402;-39
2024/01/21 01:34:49;;;;;;;6.75;3.47;;;1.80;1.00;;;;;;20583542;28;20053;-39
2024/01/21 01:44:50;;;;;;;6.57;3.25;;;1.90;1.00;;;;;;20580586;28;20038;-39
2024/01/21 01:54:51;;;;;;;9.40;3.47;;;1.80;1.00;;;;;;20610060;28;20493;-38
2024/01/21 02:04:52;;;;;;;7.82;3.75;;;1.90;1.00;;;;;;20592875;28;20544;-39
2024/01/21 02:14:52;;;;;;;5.13;2.53;;;1.80;1.00;;;;;;20588107;28;20097;-39
2024/01/21 02:24:53;;;;;;;6.68;2.90;;;1.80;1.00;;;;;;20592004;28;20046;-39
2024/01/21 02:34:54;;;;;;;7.15;2.83;;;1.80;1.00;;;;;;20584155;28;20502;-39
2024/01/21 02:44:55;;;;;;;7.77;2.80;;;1.80;1.00;;;;;;20579379;28;20098;-39
2024/01/21 02:54:56;;;;;;;6.28;2.88;;;1.70;1.00;;;;;;20570120;28;20617;-39
2024/01/21 03:04:57;;;;;;;5.57;2.78;;;1.70;1.00;;;;;;20572915;28;20039;-39
2024/01/21 03:14:57;;;;;;;5.93;3.13;;;1.70;1.00;;;;;;20572691;28;20101;-39
2024/01/21 03:24:58;;;;;;;6.57;2.42;;;1.60;1.00;;;;;;20568907;28;20984;-39
2024/01/21 03:34:59;;;;;;;7.38;2.67;;;1.70;1.00;;;;;;20775381;23;20047;-39
2024/01/21 03:44:59;;;;;;;6.68;2.80;;;1.70;1.00;;;;;;20581466;28;20035;-39
2024/01/21 03:55:01;;;;;;;6.07;3.15;;;1.80;1.00;;;;;;20585748;28;20053;-39
2024/01/21 04:05:03;;;;;;;8.15;3.13;;;1.80;1.00;;;;;;20575137;28;20108;-39
2024/01/21 04:15:04;;;;;;;8.70;3.60;;;1.80;1.00;;;;;;20582551;28;20469;-39
2024/01/21 04:25:05;;;;;;;8.32;3.72;;;1.80;1.00;;;;;;20586610;28;20137;-38
2024/01/21 04:35:06;;;;;;;7.18;3.90;;;1.90;1.00;;;;;;20608919;28;20048;-39
2024/01/21 04:45:07;;;;;;;8.68;3.83;;;1.90;1.00;;;;;;20659033;28;20096;-38
2024/01/21 04:55:08;;;;;;;8.23;4.05;;;2.10;1.00;;;;;;20662879;28;20076;-38
2024/01/21 05:05:09;;;;;;;8.52;3.58;;;2.20;1.00;;;;;;20663805;28;20149;-39
2024/01/21 05:15:10;;;;;;;10.67;4.87;;;2.20;1.00;;;;;;20658676;28;20053;-38
2024/01/21 05:25:11;;;;;;;10.38;4.22;;;2.20;1.00;;;;;;20670214;28;20457;-39
2024/01/21 05:35:13;;;;;;;12.23;4.55;;;2.20;1.00;;;;;;20662947;28;20071;-38
2024/01/21 05:45:13;;;;;;;8.73;4.18;;;2.10;1.00;;;;;;20660852;28;20035;-39
2024/01/21 05:55:14;;;;;;;11.05;4.50;;;2.10;1.00;;;;;;20665156;28;20046;-39
2024/01/21 06:05:15;;;;;;;9.70;3.90;;;2.20;1.00;;;;;;20668916;28;20124;-38
2024/01/21 06:15:15;;;;;;;9.02;3.95;;;2.20;1.00;;;;;;20659286;28;20543;-38
2024/01/21 06:25:17;;;;;;;8.27;4.20;;;2.30;1.00;;;;;;20661268;28;20038;-39
2024/01/21 06:35:17;;;;;;;10.10;4.47;;;2.40;1.00;;;;;;20671873;28;20512;-38
2024/01/21 06:45:20;;;;;;;8.55;4.45;;;2.50;1.00;;;;;;20681199;28;20062;-39
2024/01/21 06:55:20;;;;;;;9.85;4.55;;;2.50;1.00;;;;;;20673958;28;20485;-38
2024/01/21 07:05:21;;;;;;;11.13;4.78;;;2.60;1.00;;;;;;20672343;28;20042;-39
2024/01/21 07:15:24;;;;;;;9.52;4.18;;;2.60;1.00;;;;;;20680139;28;20081;-38
2024/01/21 07:25:24;;;;;;;11.10;4.95;;;2.60;1.00;;;;;;20674421;28;20119;-39
2024/01/21 07:35:25;;;;;;;9.40;4.40;;;2.70;1.00;;;;;;20670973;28;20099;-38
2024/01/21 07:45:26;;;;;;;8.70;4.20;;;2.80;1.00;;;;;;20669712;28;20039;-39
2024/01/21 07:55:26;;;;;;;9.20;4.57;;;2.90;1.00;;;;;;20675467;28;20464;-38
2024/01/21 08:05:27;;;;;;;9.70;5.10;;;2.90;1.00;;;;;;20671296;28;20468;-38
2024/01/21 08:15:27;;;;;;;10.80;4.75;;;2.90;1.00;;;;;;20669871;28;20199;-38
2024/01/21 08:25:28;;;;;;;11.85;5.43;;;2.90;1.00;;;;;;20670230;28;20029;-39
2024/01/21 08:35:29;;;;;;;8.23;4.60;;;3.00;1.00;;;;;;20666170;28;22213;-38
2024/01/21 08:45:30;;;;;;;11.20;5.18;;;3.10;1.00;;;;;;20659902;28;20049;-39
2024/01/21 08:55:30;;;;;;;9.43;5.35;;;3.20;1.00;;;;;;20659528;28;20046;-39
2024/01/21 09:05:31;;;;;;;10.18;5.20;;;3.20;1.00;;;;;;20667652;28;20042;-39
2024/01/21 09:15:32;;;;;;;10.68;4.93;;;3.30;1.00;;;;;;20658757;28;20560;-38
2024/01/21 09:25:32;;;;;;;10.07;5.22;;;3.30;1.00;;;;;;20660068;28;20401;-39
2024/01/21 09:35:33;;;;;;;9.18;4.78;;;3.40;1.00;;;;;;20657591;28;20046;-38
2024/01/21 09:45:37;;;;;;;10.00;5.00;;;3.50;1.00;;;;;;20640184;28;20030;-38
2024/01/21 09:55:37;;;;;;;10.48;5.05;;;3.50;1.00;;;;;;20658673;28;20100;-39
2024/01/21 10:05:38;;;;;;;11.10;5.27;;;3.70;1.00;;;;;;20674644;28;20042;-38
2024/01/21 10:15:39;;;;;;;9.07;5.30;;;3.80;1.00;;;;;;20682162;28;20468;-38
2024/01/21 10:25:44;;;;;;;13.70;5.90;;;3.80;1.00;;;;;;20679938;28;20378;-38
2024/01/21 10:35:47;;;;;;;10.45;5.40;;;4.00;1.00;;;;;;20644060;28;20046;-39
2024/01/21 10:45:51;;;;;;;13.13;5.68;;;4.10;1.00;;;;;;20675762;28;20029;-39
2024/01/21 10:55:52;;;;;;;11.50;5.75;;;4.20;1.00;;;;;;20666984;28;20512;-39
2024/01/21 11:06:01;;;;;;;10.82;6.00;;;4.30;1.00;;;;;;20668599;28;20505;-38
2024/01/21 11:16:04;;;;;;;11.18;5.68;;;4.50;1.00;;;;;;20670025;28;20037;-39
2024/01/21 11:26:05;;;;;;;11.93;6.32;;;4.50;1.00;;;;;;20670519;28;20038;-38
2024/01/21 11:36:08;;;;;;;10.95;6.47;;;4.60;1.00;;;;;;20668876;28;20097;-39
2024/01/21 11:46:09;;;;;;;10.70;6.38;;;4.90;1.00;;;;;;20681007;28;20046;-38
2024/01/21 11:56:10;;;;;;;12.40;6.20;;;4.90;1.00;;;;;;20682493;28;20506;-38
2024/01/21 12:06:11;;;;;;;12.20;6.15;;;5.00;1.00;;;;;;20684856;28;20129;-38
2024/01/21 12:16:12;;;;;;;12.18;6.63;;;5.00;1.00;;;;;;20660765;28;20473;-38
2024/01/21 12:26:17;;;;;;;13.40;6.50;;;5.10;1.00;;;;;;20657634;28;20105;-38
2024/01/21 12:36:17;;;;;;;14.00;6.55;;;5.10;1.00;;;;;;20668789;28;20077;-38
2024/01/21 12:46:20;;;;;;;12.63;6.43;;;5.10;1.00;;;;;;20669080;28;20042;-39
2024/01/21 12:56:21;;;;;;;15.63;6.97;;;5.30;1.00;;;;;;20663160;28;20816;-38
2024/01/21 13:06:21;;;;;;;12.45;6.30;;;5.20;1.00;;;;;;20670421;28;20119;-39
2024/01/21 13:16:22;;;;;;;14.30;7.28;;;5.40;1.00;;;;;;20663262;28;20550;-39
2024/01/21 13:26:24;;;;;;;17.27;7.60;;;5.50;1.00;;;;;;20661693;28;20120;-39
2024/01/21 13:36:25;;;;;;;16.60;8.00;;;5.60;2.10;;;;;;20656627;28;20507;-39
2024/01/21 13:46:26;;;;;;;14.90;7.53;;;5.70;5.80;;;;;;20652051;28;20113;-39
2024/01/21 13:56:27;;;;;;;17.60;7.00;;;5.70;5.40;;;;;;20693977;28;20563;-39
2024/01/21 14:06:27;;;;;;;15.23;7.97;;;5.70;7.30;;;;;;20653560;28;20038;-39
2024/01/21 14:16:28;;;;;;;16.23;8.30;;;5.80;9.30;;;;;;20682434;28;20172;-39
2024/01/21 14:26:38;;;;;;;16.35;7.45;;;5.90;11.30;;;;;;20665783;28;20037;-39
2024/01/21 14:36:43;;;;;;;16.70;8.10;;;5.80;11.70;;;;;;20666717;28;20053;-39
2024/01/21 14:46:44;;;;;;;17.33;8.20;;;5.80;10.80;;;;;;20662069;28;20609;-40
2024/01/21 14:56:45;;;;;;;16.05;7.40;;;5.70;12.40;;;;;;20675683;28;20405;-39
2024/01/21 15:06:45;;;;;;;18.37;8.80;;;5.80;11.20;;;;;;20645640;28;20065;-39
2024/01/21 15:16:46;;;;;;;14.32;7.70;;;5.70;13.80;;;;;;20699308;28;20464;-39
2024/01/21 15:26:47;;;;;;;16.77;8.37;;;5.80;11.80;;;;;;20667596;28;20058;-39
2024/01/21 15:36:50;;;;;;;19.55;8.45;;;5.80;11.00;;;;;;20659195;28;20826;-39
2024/01/21 15:46:51;;;;;;;15.15;7.95;;;5.70;10.30;;;;;;20660135;28;20038;-39
2024/01/21 15:56:51;;;;;;;16.37;8.17;;;5.80;13.30;;;;;;20667868;28;20556;-39
2024/01/21 16:06:52;;;;;;;16.77;7.85;;;5.70;17.60;;;;;;20658630;28;20449;-39
2024/01/21 16:16:53;;;;;;;15.95;8.52;;;5.80;13.40;;;;;;20665139;28;20131;-39
2024/01/21 16:26:53;;;;;;;16.57;8.13;;;5.80;13.10;;;;;;20676631;28;20048;-39
2024/01/21 16:36:54;;;;;;;17.17;8.13;;;5.80;13.10;;;;;;20667624;28;20557;-38
2024/01/21 16:46:54;;;;;;;22.88;10.15;;;5.80;15.00;;;;;;20697845;28;20781;-38
2024/01/21 16:56:55;;;;;;;16.52;7.93;;;5.80;15.00;;;;;;20647881;28;20081;-39
2024/01/21 17:06:55;;;;;;;17.67;7.97;;;5.80;16.30;;;;;;20658383;28;20037;-38
2024/01/21 17:16:56;;;;;;;16.60;8.10;;;5.70;16.20;;;;;;20648308;28;20101;-39
2024/01/21 17:26:57;;;;;;;15.68;8.07;;;5.70;15.40;;;;;;20663583;28;20084;-39
2024/01/21 17:36:57;;;;;;;17.00;8.53;;;5.70;13.10;;;;;;20656318;28;20057;-47
2024/01/21 17:46:58;;;;;;;17.57;8.63;;;5.70;14.80;;;;;;20661412;28;20449;-39
2024/01/21 17:56:59;;;;;;;16.88;9.35;;;5.70;17.30;;;;;;20660967;28;20445;-38
2024/01/21 18:06:59;;;;;;;19.05;9.20;;;5.60;20.50;;;;;;20663769;28;20038;-39
2024/01/21 18:17:01;;;;;;;21.45;9.63;;;5.60;21.70;;;;;;20632795;28;20818;-39
2024/01/21 18:27:01;;;;;;;15.43;9.20;;;5.70;23.20;;;;;;20662651;28;20100;-39
2024/01/21 18:37:02;;;;;;;20.17;9.38;;;5.80;25.60;;;;;;20664338;28;20050;-39
2024/01/21 18:47:03;;;;;;;21.15;9.57;;;5.90;26.80;;;;;;20665215;28;20061;-40
2024/01/21 18:57:05;;;;;;;17.83;10.02;;;5.90;27.20;;;;;;20640875;28;22709;-39
2024/01/21 19:07:08;;;;;;;19.33;9.68;;;6.00;29.70;;;;;;20669005;28;20125;-39
2024/01/21 19:17:09;;;;;;;17.80;8.63;;;6.10;31.90;;;;;;20659656;28;20456;-39
2024/01/21 19:27:09;;;;;;;14.68;8.20;;;6.20;32.50;;;;;;20666649;28;20046;-39
2024/01/21 19:37:10;;;;;;;17.70;7.93;;;6.30;30.00;;;;;;20662253;28;20270;-40
2024/01/21 19:47:11;;;;;;;14.88;7.82;;;6.40;29.50;;;;;;20639521;28;20037;-40
2024/01/21 19:57:11;;;;;;;17.88;7.22;;;6.50;28.70;;;;;;20688509;28;20437;-39
2024/01/21 20:07:12;;;;;;;18.30;7.60;;;6.60;25.40;;;;;;20659363;28;20429;-39
2024/01/21 20:17:14;;;;;;;15.95;6.75;;;6.70;23.40;;;;;;20655637;28;20382;-40
2024/01/21 20:27:15;;;;;;;17.80;7.10;;;6.80;23.40;;;;;;20624469;28;20057;-40
2024/01/21 20:37:16;;;;;;;12.27;6.28;;;6.90;21.60;;;;;;20657305;28;20076;-40
2024/01/21 20:47:16;;;;;;;13.93;7.07;;;7.00;20.50;;;;;;20651024;28;20058;-39
2024/01/21 20:57:17;;;;;;;14.33;7.07;;;7.10;20.60;;;;;;20660468;28;20523;-39
2024/01/21 21:07:18;;;;;;;12.90;6.33;;;7.20;19.40;;;;;;20645772;28;20540;-39
2024/01/21 21:17:18;;;;;;;14.65;6.47;;;7.40;19.20;;;;;;20659156;28;20048;-39
2024/01/21 21:27:19;;;;;;;13.97;6.00;;;7.50;20.20;;;;;;20647898;28;20057;-39
2024/01/21 21:37:20;;;;;;;15.57;6.47;;;7.50;29.50;;;;;;20664783;28;20047;-39
2024/01/21 21:47:20;;;;;;;15.03;7.10;;;7.40;48.00;;;;;;20661682;28;20502;-39
2024/01/21 21:57:21;;;;;;;14.63;6.35;;;7.50;68.90;;;;;;20661234;28;20503;-39
2024/01/21 22:07:21;;;;;;;14.93;6.80;;;7.50;81.70;;;;;;20689094;28;20034;-39
2024/01/21 22:17:22;;;;;;;11.52;6.72;;;7.70;92.70;;;;;;20689039;28;20931;-39
2024/01/21 22:27:23;;;;;;;20.08;7.25;;;7.80;91.90;;;;;;20688710;28;20044;-39
2024/01/21 22:37:23;;;;;;;13.48;6.80;;;7.80;99.90;;;;;;20679003;28;20421;-40
2024/01/21 22:47:24;;;;;;;13.27;6.80;;;7.90;99.90;;;;;;20674187;28;20083;-40
2024/01/21 22:57:24;;;;;;;11.70;5.65;;;8.10;99.90;;;;;;20668033;28;20336;-40
2024/01/21 23:07:25;;;;;;;12.15;5.68;;;8.30;99.90;;;;;;20675494;28;20065;-40
2024/01/21 23:17:26;;;;;;;7.90;5.03;;;8.40;99.90;;;;;;20670604;28;20046;-40
2024/01/21 23:27:26;;;;;;;12.98;5.75;;;8.60;91.60;;;;;;20668594;28;20783;-40
2024/01/21 23:37:27;;;;;;;10.15;5.18;;;8.80;77.50;;;;;;20667552;28;20050;-40
2024/01/21 23:47:27;;;;;;;12.65;4.95;;;8.90;62.70;;;;;;20665553;28;20041;-40
2024/01/21 23:57:28;;;;;;;10.07;5.25;;;9.10;48.70;;;;;;20658450;28;20548;-39
